createdAt,value
2022-11-29T00:01:29.221Z,29.05
2022-11-29T00:03:55.983Z,32.30
2022-11-29T00:06:28.343Z,30.45
2022-11-29T00:08:56.803Z,28.75
2022-11-29T00:11:49.183Z,30.40
2022-11-29T00:14:18.075Z,28.75
2022-11-29T00:16:44.696Z,28.25
2022-11-29T00:19:13.280Z,27.50
2022-11-29T00:21:39.718Z,29.98
2022-11-29T00:24:06.871Z,29.83
2022-11-29T00:26:33.375Z,28.83
2022-11-29T00:28:59.812Z,30.05
2022-11-29T00:31:31.265Z,29.35
2022-11-29T00:33:59.005Z,29.20
2022-11-29T00:36:26.145Z,27.10
2022-11-29T00:38:52.898Z,29.15
2022-11-29T00:41:19.964Z,27.73
2022-11-29T00:43:46.512Z,27.80
2022-11-29T00:46:13.023Z,27.33
2022-11-29T00:48:39.561Z,25.53
2022-11-29T00:51:06.760Z,26.35
2022-11-29T00:53:34.560Z,29.50
2022-11-29T00:56:02.347Z,28.05
2022-11-29T00:58:29.323Z,28.35
2022-11-29T01:00:56.384Z,28.70
2022-11-29T01:03:23.467Z,29.23
2022-11-29T01:05:50.202Z,27.42
2022-11-29T01:08:17.315Z,29.08
2022-11-29T01:10:44.197Z,26.58
2022-11-29T01:13:11.015Z,26.07
2022-11-29T01:15:38.264Z,28.88
2022-11-29T01:18:05.007Z,25.77
2022-11-29T01:20:31.402Z,27.35
2022-11-29T01:22:58.599Z,27.52
2022-11-29T01:25:25.260Z,26.17
2022-11-29T01:27:51.701Z,26.52
2022-11-29T01:30:18.122Z,27.27
2022-11-29T01:32:44.555Z,25.67
2022-11-29T01:35:10.960Z,26.33
2022-11-29T01:37:37.410Z,25.57
2022-11-29T01:40:04.374Z,25.85
2022-11-29T01:42:30.833Z,25.88
2022-11-29T01:45:19.957Z,25.45
2022-11-29T01:47:48.019Z,27.38
2022-11-29T01:50:14.729Z,24.17
2022-11-29T01:52:41.884Z,27.48
2022-11-29T01:55:10.012Z,26.42
2022-11-29T01:57:39.805Z,24.67
2022-11-29T02:00:13.007Z,23.08
2022-11-29T02:02:47.037Z,22.90
2022-11-29T02:05:16.782Z,22.08
2022-11-29T02:07:45.763Z,23.90
2022-11-29T02:10:12.515Z,23.80
2022-11-29T02:12:44.542Z,22.35
2022-11-29T02:15:38.354Z,23.83
2022-11-29T02:18:28.324Z,23.70
2022-11-29T02:21:08.784Z,23.33
2022-11-29T02:24:02.272Z,23.50
2022-11-29T02:26:53.480Z,22.20
2022-11-29T02:30:01.873Z,24.23
2022-11-29T02:32:46.555Z,22.23
2022-11-29T02:35:25.191Z,24.38
2022-11-29T02:38:06.612Z,24.08
2022-11-29T02:40:42.085Z,25.42
2022-11-29T02:43:53.319Z,23.17
2022-11-29T02:46:25.760Z,23.15
2022-11-29T02:49:02.998Z,23.58
2022-11-29T02:52:01.876Z,25.00
2022-11-29T02:54:50.228Z,25.88
2022-11-29T02:57:24.709Z,26.07
2022-11-29T03:00:03.827Z,25.58
2022-11-29T03:02:42.734Z,26.40
2022-11-29T03:05:49.757Z,24.33
2022-11-29T03:08:40.764Z,24.10
2022-11-29T03:11:32.183Z,24.20
2022-11-29T03:14:10.798Z,25.10
2022-11-29T03:16:51.280Z,26.75
2022-11-29T03:19:23.812Z,26.42
2022-11-29T03:22:02.135Z,23.58
2022-11-29T03:25:14.756Z,23.90
2022-11-29T03:27:47.553Z,24.58
2022-11-29T03:30:17.328Z,25.08
2022-11-29T03:33:03.467Z,25.75
2022-11-29T03:35:40.870Z,25.27
2022-11-29T03:38:25.920Z,23.67
2022-11-29T03:41:13.733Z,24.38
2022-11-29T03:44:12.779Z,24.67
2022-11-29T03:47:00.939Z,23.58
2022-11-29T03:49:56.480Z,23.40
2022-11-29T03:52:33.935Z,24.50
2022-11-29T03:55:12.487Z,25.45
2022-11-29T03:58:13.145Z,25.10
2022-11-29T04:01:20.493Z,23.30
2022-11-29T04:04:23.780Z,24.52
2022-11-29T04:07:11.497Z,22.60
2022-11-29T04:10:09.267Z,23.27
2022-11-29T04:13:01.674Z,23.80
2022-11-29T04:16:02.923Z,22.27
2022-11-29T04:19:09.503Z,22.35
2022-11-29T04:21:45.003Z,25.20
2022-11-29T04:24:11.482Z,23.08
2022-11-29T04:27:09.025Z,25.67
2022-11-29T04:30:18.533Z,24.50
2022-11-29T04:33:25.887Z,25.38
2022-11-29T04:36:07.690Z,22.53
2022-11-29T04:38:49.448Z,22.45
2022-11-29T04:41:47.104Z,22.95
2022-11-29T04:44:25.191Z,24.35
2022-11-29T04:47:21.973Z,23.13
2022-11-29T04:49:54.035Z,23.13
2022-11-29T04:52:52.309Z,22.65
2022-11-29T04:55:38.172Z,22.35
2022-11-29T04:58:07.279Z,23.30
2022-11-29T05:00:45.075Z,23.83
2022-11-29T05:03:23.340Z,22.47
2022-11-29T05:06:03.164Z,22.13
2022-11-29T05:08:41.484Z,22.33
2022-11-29T05:11:45.945Z,22.10
2022-11-29T05:14:49.970Z,21.77
2022-11-29T05:17:26.572Z,21.03
2022-11-29T05:20:23.100Z,21.73
2022-11-29T05:22:52.222Z,22.50
2022-11-29T05:25:35.278Z,21.42
2022-11-29T05:28:15.172Z,21.35
2022-11-29T05:31:07.387Z,20.60
2022-11-29T05:33:45.685Z,21.20
2022-11-29T05:36:21.893Z,21.75
2022-11-29T05:39:11.377Z,20.20
2022-11-29T05:42:06.312Z,21.40
2022-11-29T05:44:47.651Z,20.80
2022-11-29T05:47:46.714Z,20.92
2022-11-29T05:50:26.584Z,20.67
2022-11-29T05:53:29.468Z,21.38
2022-11-29T05:56:14.115Z,20.35
2022-11-29T05:58:49.695Z,19.90
2022-11-29T06:01:26.083Z,21.60
2022-11-29T06:04:17.760Z,20.67
2022-11-29T06:07:12.312Z,19.20
2022-11-29T06:09:48.180Z,21.80
2022-11-29T06:12:23.514Z,19.80
2022-11-29T06:15:01.837Z,20.15
2022-11-29T06:17:48.687Z,22.17
2022-11-29T06:20:24.115Z,20.48
2022-11-29T06:23:18.577Z,22.23
2022-11-29T06:26:29.117Z,20.73
2022-11-29T06:29:14.388Z,19.08
2022-11-29T06:31:46.359Z,20.40
2022-11-29T06:34:36.832Z,20.55
2022-11-29T06:37:19.846Z,19.92
2022-11-29T06:39:46.532Z,19.50
2022-11-29T06:42:12.949Z,19.42
2022-11-29T06:44:39.876Z,18.65
2022-11-29T06:47:20.197Z,20.65
2022-11-29T06:49:50.994Z,19.20
2022-11-29T06:52:28.504Z,19.27
2022-11-29T06:54:57.764Z,19.23
2022-11-29T06:57:33.276Z,18.35
2022-11-29T07:00:13.020Z,18.92
2022-11-29T07:02:54.470Z,19.23
2022-11-29T07:05:25.942Z,17.77
2022-11-29T07:07:55.656Z,17.70
2022-11-29T07:10:23.641Z,18.45
2022-11-29T07:12:51.119Z,17.77
2022-11-29T07:15:20.666Z,18.92
2022-11-29T07:18:16.300Z,18.83
2022-11-29T07:21:08.688Z,19.30
2022-11-29T07:23:45.416Z,18.42
2022-11-29T07:26:59.271Z,18.23
2022-11-29T07:30:05.068Z,17.48
2022-11-29T07:32:47.290Z,18.20
2022-11-29T07:35:24.527Z,17.23
2022-11-29T07:38:10.329Z,17.50
2022-11-29T07:41:02.954Z,16.55
2022-11-29T07:44:11.025Z,18.85
2022-11-29T07:46:37.514Z,18.73
2022-11-29T07:49:04.061Z,18.45
2022-11-29T07:51:31.366Z,17.98
2022-11-29T07:53:57.872Z,19.38
2022-11-29T07:56:24.323Z,17.38
2022-11-29T07:58:50.793Z,17.37
2022-11-29T08:01:17.320Z,17.73
2022-11-29T08:03:43.897Z,17.90
2022-11-29T08:06:10.516Z,16.58
2022-11-29T08:08:43.565Z,17.02
2022-11-29T08:11:12.533Z,16.00
2022-11-29T08:13:38.997Z,15.50
2022-11-29T08:16:05.606Z,16.23
2022-11-29T08:18:32.060Z,14.35
2022-11-29T08:20:58.486Z,17.17
2022-11-29T08:23:24.957Z,15.57
2022-11-29T08:25:58.245Z,15.68
2022-11-29T08:28:24.695Z,15.50
2022-11-29T08:30:51.269Z,13.13
2022-11-29T08:33:17.740Z,13.95
2022-11-29T08:35:44.188Z,14.03
2022-11-29T08:38:10.702Z,14.07
2022-11-29T08:40:37.107Z,14.48
2022-11-29T08:43:03.607Z,14.07
2022-11-29T08:45:30.110Z,14.68
2022-11-29T08:47:56.610Z,12.37
2022-11-29T08:50:23.335Z,15.38
2022-11-29T08:53:08.253Z,14.57
2022-11-29T08:55:38.844Z,13.82
2022-11-29T08:58:07.830Z,13.82
2022-11-29T09:00:34.775Z,15.47
2022-11-29T09:03:24.729Z,13.23
2022-11-29T09:05:51.827Z,13.30
2022-11-29T09:08:18.961Z,13.10
2022-11-29T09:10:46.084Z,13.50
2022-11-29T09:13:12.603Z,12.93
2022-11-29T09:15:41.917Z,13.82
2022-11-29T09:18:08.408Z,15.85
2022-11-29T09:20:35.092Z,14.10
2022-11-29T09:23:01.764Z,13.55
2022-11-29T09:25:29.177Z,11.83
2022-11-29T09:27:58.429Z,12.45
2022-11-29T09:30:25.026Z,11.57
2022-11-29T09:32:51.563Z,12.50
2022-11-29T09:35:18.123Z,12.25
2022-11-29T09:37:44.625Z,13.03
2022-11-29T09:40:27.409Z,11.68
2022-11-29T09:43:19.165Z,11.90
2022-11-29T09:45:49.920Z,12.05
2022-11-29T09:48:36.936Z,12.48
2022-11-29T09:51:25.611Z,10.90
2022-11-29T09:54:18.385Z,12.63
2022-11-29T09:56:50.043Z,12.65
2022-11-29T09:59:32.526Z,11.45
2022-11-29T10:02:21.457Z,12.55
2022-11-29T10:04:52.192Z,12.33
2022-11-29T10:07:29.074Z,12.27
2022-11-29T10:10:01.815Z,11.93
2022-11-29T10:12:52.391Z,13.27
2022-11-29T10:15:23.907Z,13.75
2022-11-29T10:18:19.229Z,12.20
2022-11-29T10:20:49.651Z,13.40
2022-11-29T10:23:24.274Z,13.48
2022-11-29T10:25:53.544Z,13.23
2022-11-29T10:28:24.024Z,13.95
2022-11-29T10:30:53.599Z,14.83
2022-11-29T10:33:32.455Z,14.18
2022-11-29T10:36:02.431Z,13.10
2022-11-29T10:38:31.427Z,13.63
2022-11-29T10:41:06.932Z,12.82
2022-11-29T10:43:34.002Z,13.47
2022-11-29T10:46:02.413Z,13.68
2022-11-29T10:48:33.628Z,12.88
2022-11-29T10:51:01.490Z,12.88
2022-11-29T10:53:32.197Z,13.27
2022-11-29T10:56:13.968Z,13.60
2022-11-29T10:59:03.227Z,13.02
2022-11-29T11:01:37.505Z,13.60
2022-11-29T11:04:08.463Z,12.82
2022-11-29T11:06:48.361Z,12.82
2022-11-29T11:09:33.904Z,12.13
2022-11-29T11:12:05.700Z,13.75
2022-11-29T11:14:37.700Z,13.18
2022-11-29T11:17:22.283Z,14.05
2022-11-29T11:20:20.771Z,14.70
2022-11-29T11:23:02.578Z,14.23
2022-11-29T11:25:32.222Z,14.20
2022-11-29T11:28:21.429Z,13.30
2022-11-29T11:30:54.690Z,12.82
2022-11-29T11:33:24.426Z,13.75
2022-11-29T11:36:09.688Z,15.37
2022-11-29T11:38:39.502Z,14.88
2022-11-29T11:41:11.774Z,14.63
2022-11-29T11:43:39.563Z,15.20
2022-11-29T11:46:08.078Z,13.43
2022-11-29T11:48:35.453Z,14.47
2022-11-29T11:51:02.010Z,16.15
2022-11-29T11:53:35.718Z,13.52
2022-11-29T11:56:12.541Z,13.75
2022-11-29T11:58:44.406Z,15.48
2022-11-29T12:01:13.727Z,13.97
2022-11-29T12:03:49.365Z,15.10
2022-11-29T12:06:27.170Z,12.68
2022-11-29T12:08:59.294Z,15.20
2022-11-29T12:11:27.134Z,15.60
2022-11-29T12:13:57.178Z,15.93
2022-11-29T12:16:33.073Z,16.60
2022-11-29T12:19:06.474Z,15.43
2022-11-29T12:21:40.140Z,16.10
2022-11-29T12:24:28.988Z,16.13
2022-11-29T12:27:00.675Z,13.90
2022-11-29T12:29:32.916Z,14.40
2022-11-29T12:32:11.913Z,16.17
2022-11-29T12:35:09.042Z,16.15
2022-11-29T12:38:00.049Z,14.98
2022-11-29T12:41:03.759Z,14.67
2022-11-29T12:43:49.345Z,14.50
2022-11-29T12:46:27.688Z,15.95
2022-11-29T12:49:18.258Z,15.68
2022-11-29T12:52:15.840Z,14.98
2022-11-29T12:55:30.723Z,17.27
2022-11-29T12:57:59.836Z,14.02
2022-11-29T13:00:32.345Z,16.63
2022-11-29T13:03:11.455Z,15.60
2022-11-29T13:05:53.243Z,15.80
2022-11-29T13:08:30.094Z,15.30
2022-11-29T13:11:20.959Z,16.48
2022-11-29T13:14:03.793Z,15.57
2022-11-29T13:16:56.763Z,13.95
2022-11-29T13:19:45.538Z,16.35
2022-11-29T13:22:21.208Z,14.57
2022-11-29T13:24:53.450Z,15.77
2022-11-29T13:27:27.307Z,16.33
2022-11-29T13:29:54.503Z,16.90
2022-11-29T13:32:39.955Z,17.48
2022-11-29T13:35:15.305Z,14.37
2022-11-29T13:37:55.652Z,18.70
2022-11-29T13:40:52.100Z,18.00
2022-11-29T13:43:39.352Z,17.15
2022-11-29T13:46:46.691Z,18.85
2022-11-29T13:49:22.956Z,17.33
2022-11-29T13:52:04.558Z,16.88
2022-11-29T13:54:33.541Z,17.35
2022-11-29T13:57:06.782Z,15.82
2022-11-29T13:59:36.090Z,17.05
2022-11-29T14:02:03.232Z,16.27
2022-11-29T14:04:32.613Z,16.05
2022-11-29T14:07:10.464Z,16.85
2022-11-29T14:09:44.970Z,17.15
2022-11-29T14:12:38.282Z,17.80
2022-11-29T14:15:19.497Z,17.83
2022-11-29T14:17:55.894Z,18.10
2022-11-29T14:20:22.288Z,17.17
2022-11-29T14:23:07.383Z,17.02
2022-11-29T14:25:53.297Z,18.75
2022-11-29T14:28:22.845Z,16.33
2022-11-29T14:30:54.942Z,17.73
2022-11-29T14:34:03.548Z,18.50
2022-11-29T14:36:30.012Z,16.25
2022-11-29T14:39:15.444Z,16.50
2022-11-29T14:42:14.325Z,17.17
2022-11-29T14:44:47.154Z,16.33
2022-11-29T14:47:34.610Z,16.75
2022-11-29T14:50:06.665Z,14.93
2022-11-29T14:52:49.890Z,15.85
2022-11-29T14:55:16.394Z,15.53
2022-11-29T14:58:01.229Z,15.40
2022-11-29T15:00:30.519Z,15.48
2022-11-29T15:03:05.291Z,15.80
2022-11-29T15:05:36.892Z,15.60
2022-11-29T15:08:37.637Z,14.90
2022-11-29T15:11:10.136Z,17.25
2022-11-29T15:13:46.794Z,14.38
2022-11-29T15:16:25.006Z,15.00
2022-11-29T15:19:29.849Z,16.35
2022-11-29T15:22:15.304Z,15.73
2022-11-29T15:24:52.129Z,15.25
2022-11-29T15:27:19.321Z,16.00
2022-11-29T15:29:49.091Z,15.52
2022-11-29T15:32:22.579Z,15.25
2022-11-29T15:34:51.445Z,15.80
2022-11-29T15:37:38.848Z,16.80
2022-11-29T15:40:19.060Z,17.25
2022-11-29T15:42:49.556Z,16.95
2022-11-29T15:45:28.307Z,15.48
2022-11-29T15:47:55.576Z,16.10
2022-11-29T15:50:33.465Z,15.77
2022-11-29T15:53:03.823Z,16.65
2022-11-29T15:55:30.993Z,17.17
2022-11-29T15:58:03.882Z,16.90
2022-11-29T16:00:33.833Z,15.30
2022-11-29T16:03:02.467Z,17.25
2022-11-29T16:05:35.653Z,17.20
2022-11-29T16:08:06.998Z,17.40
2022-11-29T16:10:43.567Z,16.38
2022-11-29T16:13:25.348Z,15.07
2022-11-29T16:16:04.568Z,16.02
2022-11-29T16:18:31.394Z,16.08
2022-11-29T16:21:02.576Z,18.55
2022-11-29T16:23:34.020Z,17.15
2022-11-29T16:26:02.179Z,16.73
2022-11-29T16:28:36.461Z,18.92
2022-11-29T16:31:04.860Z,17.50
2022-11-29T16:33:31.851Z,17.10
2022-11-29T16:36:35.009Z,17.67
2022-11-29T16:39:20.152Z,15.37
2022-11-29T16:42:25.919Z,17.63
2022-11-29T16:45:01.870Z,18.13
2022-11-29T16:47:46.558Z,17.33
2022-11-29T16:50:21.583Z,16.63
2022-11-29T16:52:53.439Z,17.53
2022-11-29T16:55:23.002Z,17.13
2022-11-29T16:57:49.645Z,16.80
2022-11-29T17:00:31.982Z,18.50
2022-11-29T17:02:59.314Z,18.00
2022-11-29T17:05:26.326Z,17.00
2022-11-29T17:07:53.138Z,15.90
2022-11-29T17:10:25.180Z,16.55
2022-11-29T17:12:52.091Z,16.88
2022-11-29T17:15:18.611Z,16.73
2022-11-29T17:17:45.156Z,16.47
2022-11-29T17:20:13.378Z,16.95
2022-11-29T17:22:40.112Z,16.58
2022-11-29T17:25:07.248Z,17.00
2022-11-29T17:27:33.724Z,18.05
2022-11-29T17:30:00.186Z,15.93
2022-11-29T17:32:27.135Z,16.33
2022-11-29T17:34:53.793Z,15.85
2022-11-29T17:37:20.264Z,16.77
2022-11-29T17:39:49.064Z,16.05
2022-11-29T17:42:15.654Z,15.93
2022-11-29T17:44:42.288Z,15.63
2022-11-29T17:47:08.691Z,15.50
2022-11-29T17:49:35.169Z,15.57
2022-11-29T17:52:01.717Z,16.52
2022-11-29T17:54:28.268Z,14.37
2022-11-29T17:56:55.126Z,13.80
2022-11-29T17:59:21.531Z,15.50
2022-11-29T18:01:48.195Z,15.13
2022-11-29T18:04:15.173Z,14.55
2022-11-29T18:06:41.943Z,14.77
2022-11-29T18:09:10.530Z,17.45
2022-11-29T18:11:48.159Z,15.45
2022-11-29T18:14:17.992Z,15.73
2022-11-29T18:16:47.417Z,15.65
2022-11-29T18:19:17.563Z,13.87
2022-11-29T18:21:44.715Z,14.65
2022-11-29T18:24:11.559Z,15.40
2022-11-29T18:26:38.725Z,14.38
2022-11-29T18:29:06.478Z,14.27
2022-11-29T18:31:35.323Z,14.83
2022-11-29T18:34:06.944Z,14.32
2022-11-29T18:36:35.920Z,15.57
2022-11-29T18:39:11.619Z,14.40
2022-11-29T18:41:38.332Z,15.10
2022-11-29T18:44:07.995Z,15.00
2022-11-29T18:46:37.292Z,14.50
2022-11-29T18:49:06.540Z,14.50
2022-11-29T18:51:34.210Z,15.82
2022-11-29T18:54:01.492Z,14.07
2022-11-29T18:56:30.592Z,13.07
2022-11-29T18:58:59.621Z,14.27
2022-11-29T19:01:32.218Z,14.60
2022-11-29T19:04:00.465Z,15.70
2022-11-29T19:06:35.456Z,13.93
2022-11-29T19:09:06.718Z,14.90
2022-11-29T19:11:34.355Z,14.48
2022-11-29T19:14:03.938Z,14.85
2022-11-29T19:16:32.587Z,15.32
2022-11-29T19:19:00.579Z,13.95
2022-11-29T19:21:28.759Z,14.00
2022-11-29T19:23:57.765Z,15.25
2022-11-29T19:26:26.686Z,15.48
2022-11-29T19:28:54.056Z,14.60
2022-11-29T19:31:26.969Z,13.98
2022-11-29T19:33:54.500Z,13.03
2022-11-29T19:36:26.321Z,14.80
2022-11-29T19:38:54.093Z,13.93
2022-11-29T19:41:23.033Z,14.32
2022-11-29T19:43:50.098Z,13.52
2022-11-29T19:46:20.012Z,12.03
2022-11-29T19:48:47.659Z,12.77
2022-11-29T19:51:17.511Z,12.43
2022-11-29T19:53:45.066Z,12.00
2022-11-29T19:56:14.233Z,11.63
2022-11-29T19:58:40.997Z,12.23
2022-11-29T20:01:10.551Z,12.07
2022-11-29T20:03:37.560Z,12.98
2022-11-29T20:06:04.503Z,13.20
2022-11-29T20:08:31.599Z,13.90
2022-11-29T20:11:13.664Z,11.93
2022-11-29T20:13:41.898Z,11.82
2022-11-29T20:16:14.570Z,12.25
2022-11-29T20:18:47.259Z,12.70
2022-11-29T20:21:20.519Z,11.48
2022-11-29T20:23:47.231Z,11.17
2022-11-29T20:26:19.976Z,11.18
2022-11-29T20:28:47.400Z,11.13
2022-11-29T20:31:21.383Z,12.40
2022-11-29T20:33:48.962Z,11.02
2022-11-29T20:36:27.563Z,11.37
2022-11-29T20:39:23.948Z,10.77
2022-11-29T20:42:05.834Z,11.30
2022-11-29T20:44:54.028Z,9.90
2022-11-29T20:47:24.186Z,11.10
2022-11-29T20:49:51.053Z,10.97
2022-11-29T20:52:45.428Z,11.68
2022-11-29T20:55:12.018Z,11.18
2022-11-29T20:57:38.475Z,10.50
2022-11-29T21:00:11.240Z,11.43
2022-11-29T21:02:38.498Z,11.37
2022-11-29T21:05:05.839Z,12.63
2022-11-29T21:07:32.349Z,11.93
2022-11-29T21:10:01.375Z,11.40
2022-11-29T21:12:29.379Z,11.07
2022-11-29T21:14:56.065Z,12.17
2022-11-29T21:17:22.886Z,10.85
2022-11-29T21:19:49.663Z,10.80
2022-11-29T21:22:37.516Z,10.38
2022-11-29T21:25:13.978Z,12.38
2022-11-29T21:27:40.770Z,11.40
2022-11-29T21:30:18.415Z,11.82
2022-11-29T21:32:45.852Z,10.88
2022-11-29T21:35:13.185Z,11.70
2022-11-29T21:37:39.972Z,12.35
2022-11-29T21:40:07.651Z,12.53
2022-11-29T21:42:34.071Z,12.68
2022-11-29T21:45:00.469Z,13.15
2022-11-29T21:47:26.924Z,12.20
2022-11-29T21:49:54.626Z,11.10
2022-11-29T21:52:22.974Z,12.23
2022-11-29T21:54:49.918Z,11.95
2022-11-29T21:57:16.379Z,11.77
2022-11-29T21:59:42.851Z,12.13
2022-11-29T22:02:09.349Z,12.25
2022-11-29T22:04:35.882Z,11.50
2022-11-29T22:07:02.352Z,11.50
2022-11-29T22:09:28.865Z,11.90
2022-11-29T22:11:55.308Z,12.75
2022-11-29T22:14:21.741Z,12.32
2022-11-29T22:16:51.140Z,11.77
2022-11-29T22:19:20.188Z,11.50
2022-11-29T22:21:49.634Z,12.18
2022-11-29T22:24:18.639Z,12.18
2022-11-29T22:26:46.214Z,12.90
2022-11-29T22:29:14.206Z,11.50
2022-11-29T22:31:42.296Z,11.77
2022-11-29T22:34:08.998Z,10.75
2022-11-29T22:36:36.322Z,12.05
2022-11-29T22:39:03.852Z,12.15
2022-11-29T22:41:31.684Z,12.32
2022-11-29T22:43:58.174Z,11.90
2022-11-29T22:46:26.733Z,12.18
2022-11-29T22:48:55.583Z,12.25
2022-11-29T22:51:24.686Z,12.52
2022-11-29T22:53:53.942Z,12.05
2022-11-29T22:56:21.766Z,11.13
2022-11-29T22:58:48.602Z,10.93
2022-11-29T23:01:18.226Z,12.57
2022-11-29T23:03:48.351Z,11.73
2022-11-29T23:06:18.645Z,11.60
2022-11-29T23:08:47.136Z,11.63
2022-11-29T23:11:16.704Z,11.43
2022-11-29T23:13:44.237Z,10.30
2022-11-29T23:16:16.179Z,10.80
2022-11-29T23:18:45.591Z,12.38
2022-11-29T23:21:17.783Z,13.80
2022-11-29T23:23:44.479Z,13.27
2022-11-29T23:26:22.564Z,13.65
2022-11-29T23:28:49.236Z,11.95
2022-11-29T23:31:17.601Z,13.57
2022-11-29T23:33:44.494Z,12.63
2022-11-29T23:36:12.210Z,13.05
2022-11-29T23:38:38.924Z,12.05
2022-11-29T23:41:06.775Z,12.18
2022-11-29T23:43:35.833Z,12.52
2022-11-29T23:46:14.452Z,13.53
2022-11-29T23:48:41.643Z,12.32
2022-11-29T23:51:08.717Z,12.13
2022-11-29T23:53:35.177Z,12.02
2022-11-29T23:56:04.150Z,11.15
2022-11-29T23:58:32.136Z,10.87
